sensor_id;sensor_type;location;lat;lon;timestamp;P1;durP1;ratioP1;P2;durP2;ratioP2
11537;SDS011;50159;49.426;11.182;2023-05-13T00:01:21;2.73;;;2.60;;
11537;SDS011;50159;49.426;11.182;2023-05-13T00:03:48;2.73;;;2.63;;
11537;SDS011;50159;49.426;11.182;2023-05-13T00:06:14;2.90;;;2.07;;
11537;SDS011;50159;49.426;11.182;2023-05-13T00:08:41;7.87;;;3.17;;
11537;SDS011;50159;49.426;11.182;2023-05-13T00:11:08;2.50;;;2.40;;
11537;SDS011;50159;49.426;11.182;2023-05-13T00:13:35;2.80;;;2.70;;
11537;SDS011;50159;49.426;11.182;2023-05-13T00:16:02;2.87;;;2.67;;
11537;SDS011;50159;49.426;11.182;2023-05-13T00:18:29;2.83;;;2.70;;
11537;SDS011;50159;49.426;11.182;2023-05-13T00:20:55;4.70;;;2.47;;
11537;SDS011;50159;49.426;11.182;2023-05-13T00:23:22;4.03;;;2.60;;
11537;SDS011;50159;49.426;11.182;2023-05-13T00:25:49;3.40;;;3.20;;
11537;SDS011;50159;49.426;11.182;2023-05-13T00:28:15;3.30;;;3.10;;
11537;SDS011;50159;49.426;11.182;2023-05-13T00:30:42;4.47;;;4.07;;
11537;SDS011;50159;49.426;11.182;2023-05-13T00:33:10;5.30;;;4.50;;
11537;SDS011;50159;49.426;11.182;2023-05-13T00:35:37;5.23;;;4.57;;
11537;SDS011;50159;49.426;11.182;2023-05-13T00:38:04;7.20;;;5.10;;
11537;SDS011;50159;49.426;11.182;2023-05-13T00:40:30;10.00;;;6.43;;
11537;SDS011;50159;49.426;11.182;2023-05-13T00:43:01;6.47;;;5.20;;
11537;SDS011;50159;49.426;11.182;2023-05-13T00:45:28;4.40;;;4.00;;
11537;SDS011;50159;49.426;11.182;2023-05-13T00:47:55;5.60;;;4.70;;
11537;SDS011;50159;49.426;11.182;2023-05-13T00:50:22;4.77;;;4.33;;
11537;SDS011;50159;49.426;11.182;2023-05-13T00:52:49;3.50;;;3.30;;
11537;SDS011;50159;49.426;11.182;2023-05-13T00:55:16;4.13;;;3.73;;
11537;SDS011;50159;49.426;11.182;2023-05-13T00:57:43;4.70;;;3.53;;
11537;SDS011;50159;49.426;11.182;2023-05-13T01:00:10;5.03;;;3.70;;
11537;SDS011;50159;49.426;11.182;2023-05-13T01:08:13;3.87;;;3.57;;
11537;SDS011;50159;49.426;11.182;2023-05-13T01:10:49;4.40;;;3.83;;
11537;SDS011;50159;49.426;11.182;2023-05-13T01:13:22;3.80;;;3.60;;
11537;SDS011;50159;49.426;11.182;2023-05-13T01:16:00;3.47;;;3.17;;
11537;SDS011;50159;49.426;11.182;2023-05-13T01:18:39;3.40;;;3.20;;
11537;SDS011;50159;49.426;11.182;2023-05-13T01:21:10;2.70;;;2.60;;
11537;SDS011;50159;49.426;11.182;2023-05-13T01:23:37;3.30;;;3.10;;
11537;SDS011;50159;49.426;11.182;2023-05-13T01:26:04;2.80;;;2.70;;
11537;SDS011;50159;49.426;11.182;2023-05-13T01:28:30;2.83;;;2.73;;
11537;SDS011;50159;49.426;11.182;2023-05-13T01:30:57;2.87;;;2.70;;
11537;SDS011;50159;49.426;11.182;2023-05-13T01:33:24;4.07;;;2.80;;
11537;SDS011;50159;49.426;11.182;2023-05-13T01:35:51;2.47;;;2.37;;
11537;SDS011;50159;49.426;11.182;2023-05-13T01:38:19;2.87;;;2.77;;
11537;SDS011;50159;49.426;11.182;2023-05-13T01:40:46;2.83;;;2.73;;
11537;SDS011;50159;49.426;11.182;2023-05-13T01:43:13;2.27;;;2.17;;
11537;SDS011;50159;49.426;11.182;2023-05-13T01:45:40;2.60;;;2.50;;
11537;SDS011;50159;49.426;11.182;2023-05-13T01:48:06;2.67;;;2.37;;
11537;SDS011;50159;49.426;11.182;2023-05-13T01:50:33;2.40;;;2.40;;
11537;SDS011;50159;49.426;11.182;2023-05-13T01:53:00;2.90;;;2.70;;
11537;SDS011;50159;49.426;11.182;2023-05-13T01:55:27;2.57;;;2.37;;
11537;SDS011;50159;49.426;11.182;2023-05-13T01:57:53;2.80;;;2.60;;
11537;SDS011;50159;49.426;11.182;2023-05-13T02:00:20;2.60;;;2.50;;
11537;SDS011;50159;49.426;11.182;2023-05-13T02:02:48;3.00;;;2.70;;
11537;SDS011;50159;49.426;11.182;2023-05-13T02:05:15;2.50;;;2.40;;
11537;SDS011;50159;49.426;11.182;2023-05-13T02:07:41;2.53;;;2.43;;
11537;SDS011;50159;49.426;11.182;2023-05-13T02:10:08;3.23;;;3.03;;
11537;SDS011;50159;49.426;11.182;2023-05-13T02:12:35;2.70;;;2.60;;
11537;SDS011;50159;49.426;11.182;2023-05-13T02:15:02;2.60;;;2.50;;
11537;SDS011;50159;49.426;11.182;2023-05-13T02:17:29;2.97;;;2.87;;
11537;SDS011;50159;49.426;11.182;2023-05-13T02:19:55;2.67;;;2.57;;
11537;SDS011;50159;49.426;11.182;2023-05-13T02:22:22;2.73;;;2.63;;
11537;SDS011;50159;49.426;11.182;2023-05-13T02:24:49;3.30;;;3.10;;
11537;SDS011;50159;49.426;11.182;2023-05-13T02:27:15;3.00;;;2.90;;
11537;SDS011;50159;49.426;11.182;2023-05-13T02:29:42;2.47;;;2.37;;
11537;SDS011;50159;49.426;11.182;2023-05-13T02:32:09;2.83;;;2.70;;
11537;SDS011;50159;49.426;11.182;2023-05-13T02:34:35;2.70;;;2.60;;
11537;SDS011;50159;49.426;11.182;2023-05-13T02:37:02;2.67;;;2.57;;
11537;SDS011;50159;49.426;11.182;2023-05-13T02:39:29;2.50;;;2.40;;
11537;SDS011;50159;49.426;11.182;2023-05-13T02:41:56;2.93;;;2.83;;
11537;SDS011;50159;49.426;11.182;2023-05-13T02:44:23;2.67;;;2.57;;
11537;SDS011;50159;49.426;11.182;2023-05-13T02:46:49;2.90;;;2.70;;
11537;SDS011;50159;49.426;11.182;2023-05-13T02:49:16;3.00;;;2.90;;
11537;SDS011;50159;49.426;11.182;2023-05-13T02:51:43;2.53;;;2.40;;
11537;SDS011;50159;49.426;11.182;2023-05-13T02:54:11;2.97;;;2.87;;
11537;SDS011;50159;49.426;11.182;2023-05-13T02:56:38;2.60;;;2.50;;
11537;SDS011;50159;49.426;11.182;2023-05-13T02:59:05;3.07;;;2.87;;
11537;SDS011;50159;49.426;11.182;2023-05-13T03:01:32;2.80;;;2.70;;
11537;SDS011;50159;49.426;11.182;2023-05-13T03:03:58;2.73;;;2.63;;
11537;SDS011;50159;49.426;11.182;2023-05-13T03:06:25;2.87;;;2.77;;
11537;SDS011;50159;49.426;11.182;2023-05-13T03:08:52;4.00;;;2.83;;
11537;SDS011;50159;49.426;11.182;2023-05-13T03:11:18;3.00;;;2.90;;
11537;SDS011;50159;49.426;11.182;2023-05-13T03:13:46;4.60;;;3.20;;
11537;SDS011;50159;49.426;11.182;2023-05-13T03:16:12;2.90;;;2.80;;
11537;SDS011;50159;49.426;11.182;2023-05-13T03:18:39;3.03;;;2.93;;
11537;SDS011;50159;49.426;11.182;2023-05-13T03:21:06;2.77;;;2.67;;
11537;SDS011;50159;49.426;11.182;2023-05-13T03:23:32;3.10;;;2.90;;
11537;SDS011;50159;49.426;11.182;2023-05-13T03:25:59;2.87;;;2.77;;
11537;SDS011;50159;49.426;11.182;2023-05-13T03:28:27;3.20;;;3.10;;
11537;SDS011;50159;49.426;11.182;2023-05-13T03:30:54;3.77;;;3.57;;
11537;SDS011;50159;49.426;11.182;2023-05-13T03:33:20;3.17;;;3.07;;
11537;SDS011;50159;49.426;11.182;2023-05-13T03:35:47;3.20;;;3.00;;
11537;SDS011;50159;49.426;11.182;2023-05-13T03:38:14;3.20;;;3.10;;
11537;SDS011;50159;49.426;11.182;2023-05-13T03:40:41;2.93;;;2.83;;
11537;SDS011;50159;49.426;11.182;2023-05-13T03:43:08;3.67;;;3.47;;
11537;SDS011;50159;49.426;11.182;2023-05-13T03:45:34;3.80;;;3.60;;
11537;SDS011;50159;49.426;11.182;2023-05-13T03:48:01;3.87;;;3.60;;
11537;SDS011;50159;49.426;11.182;2023-05-13T03:50:28;3.90;;;3.70;;
11537;SDS011;50159;49.426;11.182;2023-05-13T03:52:55;3.40;;;3.27;;
11537;SDS011;50159;49.426;11.182;2023-05-13T03:55:22;3.93;;;3.70;;
11537;SDS011;50159;49.426;11.182;2023-05-13T03:57:49;3.77;;;3.57;;
11537;SDS011;50159;49.426;11.182;2023-05-13T04:00:15;4.17;;;3.90;;
11537;SDS011;50159;49.426;11.182;2023-05-13T04:02:42;4.10;;;3.80;;
11537;SDS011;50159;49.426;11.182;2023-05-13T04:05:09;4.07;;;3.77;;
11537;SDS011;50159;49.426;11.182;2023-05-13T04:07:38;3.93;;;3.70;;
11537;SDS011;50159;49.426;11.182;2023-05-13T04:10:06;4.10;;;3.90;;
11537;SDS011;50159;49.426;11.182;2023-05-13T04:12:33;4.13;;;3.93;;
11537;SDS011;50159;49.426;11.182;2023-05-13T04:15:00;3.83;;;3.57;;
11537;SDS011;50159;49.426;11.182;2023-05-13T04:17:26;3.77;;;3.57;;
11537;SDS011;50159;49.426;11.182;2023-05-13T04:19:54;3.87;;;3.67;;
11537;SDS011;50159;49.426;11.182;2023-05-13T04:22:21;4.10;;;3.80;;
11537;SDS011;50159;49.426;11.182;2023-05-13T04:24:49;3.60;;;3.40;;
11537;SDS011;50159;49.426;11.182;2023-05-13T04:27:22;3.63;;;3.43;;
11537;SDS011;50159;49.426;11.182;2023-05-13T04:29:49;4.20;;;3.90;;
11537;SDS011;50159;49.426;11.182;2023-05-13T04:32:16;4.03;;;3.80;;
11537;SDS011;50159;49.426;11.182;2023-05-13T04:34:47;4.20;;;3.90;;
11537;SDS011;50159;49.426;11.182;2023-05-13T04:37:14;3.97;;;3.77;;
11537;SDS011;50159;49.426;11.182;2023-05-13T04:39:42;4.10;;;3.80;;
11537;SDS011;50159;49.426;11.182;2023-05-13T04:42:14;4.07;;;3.80;;
11537;SDS011;50159;49.426;11.182;2023-05-13T04:44:42;4.17;;;3.87;;
11537;SDS011;50159;49.426;11.182;2023-05-13T04:47:09;4.20;;;3.90;;
11537;SDS011;50159;49.426;11.182;2023-05-13T04:49:36;3.80;;;3.60;;
11537;SDS011;50159;49.426;11.182;2023-05-13T04:52:05;3.97;;;3.77;;
11537;SDS011;50159;49.426;11.182;2023-05-13T04:54:32;3.53;;;3.33;;
11537;SDS011;50159;49.426;11.182;2023-05-13T04:57:01;3.53;;;3.43;;
11537;SDS011;50159;49.426;11.182;2023-05-13T04:59:28;3.63;;;3.53;;
11537;SDS011;50159;49.426;11.182;2023-05-13T05:01:54;4.47;;;4.17;;
11537;SDS011;50159;49.426;11.182;2023-05-13T05:04:21;3.57;;;3.40;;
11537;SDS011;50159;49.426;11.182;2023-05-13T05:06:48;3.97;;;3.77;;
11537;SDS011;50159;49.426;11.182;2023-05-13T05:09:15;4.30;;;4.00;;
11537;SDS011;50159;49.426;11.182;2023-05-13T05:11:43;3.77;;;3.57;;
11537;SDS011;50159;49.426;11.182;2023-05-13T05:14:15;3.70;;;3.50;;
11537;SDS011;50159;49.426;11.182;2023-05-13T05:16:42;3.67;;;3.47;;
11537;SDS011;50159;49.426;11.182;2023-05-13T05:19:08;3.17;;;3.07;;
11537;SDS011;50159;49.426;11.182;2023-05-13T05:21:35;3.77;;;3.47;;
11537;SDS011;50159;49.426;11.182;2023-05-13T05:24:02;3.50;;;3.40;;
11537;SDS011;50159;49.426;11.182;2023-05-13T05:26:30;3.80;;;3.60;;
11537;SDS011;50159;49.426;11.182;2023-05-13T05:28:56;3.50;;;3.40;;
11537;SDS011;50159;49.426;11.182;2023-05-13T05:31:23;3.60;;;3.40;;
11537;SDS011;50159;49.426;11.182;2023-05-13T05:33:52;3.30;;;3.20;;
11537;SDS011;50159;49.426;11.182;2023-05-13T05:36:19;3.17;;;3.07;;
11537;SDS011;50159;49.426;11.182;2023-05-13T05:38:45;3.20;;;3.10;;
11537;SDS011;50159;49.426;11.182;2023-05-13T05:41:12;3.37;;;3.20;;
11537;SDS011;50159;49.426;11.182;2023-05-13T05:43:39;3.20;;;3.00;;
11537;SDS011;50159;49.426;11.182;2023-05-13T05:46:05;3.33;;;3.13;;
11537;SDS011;50159;49.426;11.182;2023-05-13T05:48:32;3.50;;;3.40;;
11537;SDS011;50159;49.426;11.182;2023-05-13T05:51:00;4.20;;;3.90;;
11537;SDS011;50159;49.426;11.182;2023-05-13T05:53:26;3.33;;;3.13;;
11537;SDS011;50159;49.426;11.182;2023-05-13T05:55:53;3.30;;;3.10;;
11537;SDS011;50159;49.426;11.182;2023-05-13T05:58:20;3.90;;;3.30;;
11537;SDS011;50159;49.426;11.182;2023-05-13T06:00:46;3.50;;;3.30;;
11537;SDS011;50159;49.426;11.182;2023-05-13T06:03:13;3.50;;;3.40;;
11537;SDS011;50159;49.426;11.182;2023-05-13T06:05:40;3.93;;;3.67;;
11537;SDS011;50159;49.426;11.182;2023-05-13T06:08:07;3.47;;;3.27;;
11537;SDS011;50159;49.426;11.182;2023-05-13T06:10:34;3.73;;;3.30;;
11537;SDS011;50159;49.426;11.182;2023-05-13T06:13:00;3.60;;;3.40;;
11537;SDS011;50159;49.426;11.182;2023-05-13T06:15:27;3.97;;;3.67;;
11537;SDS011;50159;49.426;11.182;2023-05-13T06:17:54;3.40;;;3.23;;
11537;SDS011;50159;49.426;11.182;2023-05-13T06:20:21;4.00;;;3.70;;
11537;SDS011;50159;49.426;11.182;2023-05-13T06:22:48;3.33;;;3.13;;
11537;SDS011;50159;49.426;11.182;2023-05-13T06:25:15;4.43;;;4.03;;
11537;SDS011;50159;49.426;11.182;2023-05-13T06:27:42;4.10;;;3.80;;
11537;SDS011;50159;49.426;11.182;2023-05-13T06:30:08;3.23;;;3.13;;
11537;SDS011;50159;49.426;11.182;2023-05-13T06:32:35;3.90;;;3.60;;
11537;SDS011;50159;49.426;11.182;2023-05-13T06:35:06;3.50;;;3.40;;
11537;SDS011;50159;49.426;11.182;2023-05-13T06:37:33;3.67;;;3.37;;
11537;SDS011;50159;49.426;11.182;2023-05-13T06:39:59;3.40;;;3.20;;
11537;SDS011;50159;49.426;11.182;2023-05-13T06:42:26;3.40;;;3.20;;
11537;SDS011;50159;49.426;11.182;2023-05-13T06:44:53;3.37;;;3.17;;
11537;SDS011;50159;49.426;11.182;2023-05-13T06:47:19;4.07;;;3.77;;
11537;SDS011;50159;49.426;11.182;2023-05-13T06:49:49;3.83;;;3.63;;
11537;SDS011;50159;49.426;11.182;2023-05-13T06:52:15;3.60;;;3.40;;
11537;SDS011;50159;49.426;11.182;2023-05-13T06:54:42;3.60;;;3.40;;
11537;SDS011;50159;49.426;11.182;2023-05-13T06:57:08;3.50;;;3.30;;
11537;SDS011;50159;49.426;11.182;2023-05-13T06:59:35;3.70;;;3.50;;
11537;SDS011;50159;49.426;11.182;2023-05-13T07:02:02;3.67;;;3.47;;
11537;SDS011;50159;49.426;11.182;2023-05-13T07:04:29;3.50;;;3.30;;
11537;SDS011;50159;49.426;11.182;2023-05-13T07:06:56;3.10;;;3.00;;
11537;SDS011;50159;49.426;11.182;2023-05-13T07:09:23;3.60;;;3.50;;
11537;SDS011;50159;49.426;11.182;2023-05-13T07:11:49;3.67;;;3.47;;
11537;SDS011;50159;49.426;11.182;2023-05-13T07:14:16;3.10;;;3.00;;
11537;SDS011;50159;49.426;11.182;2023-05-13T07:16:43;3.10;;;3.00;;
11537;SDS011;50159;49.426;11.182;2023-05-13T07:19:09;3.60;;;3.40;;
11537;SDS011;50159;49.426;11.182;2023-05-13T07:21:36;3.57;;;3.37;;
11537;SDS011;50159;49.426;11.182;2023-05-13T07:24:03;3.73;;;3.53;;
11537;SDS011;50159;49.426;11.182;2023-05-13T07:26:30;3.57;;;3.37;;
11537;SDS011;50159;49.426;11.182;2023-05-13T07:28:57;3.17;;;3.07;;
11537;SDS011;50159;49.426;11.182;2023-05-13T07:31:24;3.77;;;3.57;;
11537;SDS011;50159;49.426;11.182;2023-05-13T07:33:51;3.13;;;3.03;;
11537;SDS011;50159;49.426;11.182;2023-05-13T07:36:18;3.13;;;3.00;;
11537;SDS011;50159;49.426;11.182;2023-05-13T07:38:45;3.13;;;3.03;;
11537;SDS011;50159;49.426;11.182;2023-05-13T07:41:11;3.30;;;3.20;;
11537;SDS011;50159;49.426;11.182;2023-05-13T07:43:38;3.37;;;3.27;;
11537;SDS011;50159;49.426;11.182;2023-05-13T07:46:05;3.17;;;3.03;;
11537;SDS011;50159;49.426;11.182;2023-05-13T07:48:32;3.10;;;3.00;;
11537;SDS011;50159;49.426;11.182;2023-05-13T07:50:59;4.40;;;4.10;;
11537;SDS011;50159;49.426;11.182;2023-05-13T07:53:26;3.30;;;3.10;;
11537;SDS011;50159;49.426;11.182;2023-05-13T07:55:53;3.57;;;3.27;;
11537;SDS011;50159;49.426;11.182;2023-05-13T07:58:20;3.73;;;3.23;;
11537;SDS011;50159;49.426;11.182;2023-05-13T08:00:46;3.07;;;2.97;;
11537;SDS011;50159;49.426;11.182;2023-05-13T08:03:14;3.63;;;3.50;;
11537;SDS011;50159;49.426;11.182;2023-05-13T08:05:42;3.23;;;3.03;;
11537;SDS011;50159;49.426;11.182;2023-05-13T08:08:08;3.30;;;3.20;;
11537;SDS011;50159;49.426;11.182;2023-05-13T08:10:35;2.97;;;2.87;;
11537;SDS011;50159;49.426;11.182;2023-05-13T08:13:02;3.10;;;3.00;;
11537;SDS011;50159;49.426;11.182;2023-05-13T08:15:28;2.80;;;2.70;;
11537;SDS011;50159;49.426;11.182;2023-05-13T08:17:55;2.43;;;2.37;;
11537;SDS011;50159;49.426;11.182;2023-05-13T08:20:22;3.03;;;2.93;;
11537;SDS011;50159;49.426;11.182;2023-05-13T08:22:55;3.27;;;3.07;;
11537;SDS011;50159;49.426;11.182;2023-05-13T08:25:26;3.43;;;3.23;;
11537;SDS011;50159;49.426;11.182;2023-05-13T08:27:52;3.07;;;2.97;;
11537;SDS011;50159;49.426;11.182;2023-05-13T08:30:19;3.33;;;3.13;;
11537;SDS011;50159;49.426;11.182;2023-05-13T08:32:46;3.20;;;3.10;;
11537;SDS011;50159;49.426;11.182;2023-05-13T08:35:13;3.30;;;3.00;;
11537;SDS011;50159;49.426;11.182;2023-05-13T08:37:39;3.20;;;3.00;;
11537;SDS011;50159;49.426;11.182;2023-05-13T08:40:06;3.43;;;2.97;;
11537;SDS011;50159;49.426;11.182;2023-05-13T08:42:37;3.53;;;3.27;;
11537;SDS011;50159;49.426;11.182;2023-05-13T08:45:06;2.67;;;2.57;;
11537;SDS011;50159;49.426;11.182;2023-05-13T08:47:51;3.03;;;2.90;;
11537;SDS011;50159;49.426;11.182;2023-05-13T08:50:22;3.10;;;3.00;;
11537;SDS011;50159;49.426;11.182;2023-05-13T08:52:51;2.87;;;2.40;;
11537;SDS011;50159;49.426;11.182;2023-05-13T08:55:21;2.67;;;2.57;;
11537;SDS011;50159;49.426;11.182;2023-05-13T08:57:49;3.30;;;3.10;;
11537;SDS011;50159;49.426;11.182;2023-05-13T09:00:16;2.90;;;2.70;;
11537;SDS011;50159;49.426;11.182;2023-05-13T09:02:46;2.77;;;2.60;;
11537;SDS011;50159;49.426;11.182;2023-05-13T09:05:14;2.70;;;2.60;;
11537;SDS011;50159;49.426;11.182;2023-05-13T09:07:42;2.93;;;2.63;;
11537;SDS011;50159;49.426;11.182;2023-05-13T09:10:09;3.83;;;2.77;;
11537;SDS011;50159;49.426;11.182;2023-05-13T09:12:49;2.60;;;2.50;;
11537;SDS011;50159;49.426;11.182;2023-05-13T09:15:21;3.27;;;3.07;;
11537;SDS011;50159;49.426;11.182;2023-05-13T09:17:50;2.70;;;2.60;;
11537;SDS011;50159;49.426;11.182;2023-05-13T09:20:35;2.50;;;2.40;;
11537;SDS011;50159;49.426;11.182;2023-05-13T09:23:03;2.70;;;2.60;;
11537;SDS011;50159;49.426;11.182;2023-05-13T09:25:31;2.83;;;2.60;;
11537;SDS011;50159;49.426;11.182;2023-05-13T09:27:59;2.43;;;2.33;;
11537;SDS011;50159;49.426;11.182;2023-05-13T09:30:28;2.83;;;2.73;;
11537;SDS011;50159;49.426;11.182;2023-05-13T09:35:38;2.90;;;2.80;;
11537;SDS011;50159;49.426;11.182;2023-05-13T09:38:16;2.37;;;2.37;;
11537;SDS011;50159;49.426;11.182;2023-05-13T09:40:59;2.70;;;2.60;;
11537;SDS011;50159;49.426;11.182;2023-05-13T09:43:27;2.80;;;2.60;;
11537;SDS011;50159;49.426;11.182;2023-05-13T09:46:01;2.67;;;2.57;;
11537;SDS011;50159;49.426;11.182;2023-05-13T09:48:32;3.23;;;3.10;;
11537;SDS011;50159;49.426;11.182;2023-05-13T09:50:59;2.77;;;2.67;;
11537;SDS011;50159;49.426;11.182;2023-05-13T09:53:26;2.80;;;2.70;;
11537;SDS011;50159;49.426;11.182;2023-05-13T09:55:54;2.80;;;2.70;;
11537;SDS011;50159;49.426;11.182;2023-05-13T09:58:22;3.33;;;3.03;;
11537;SDS011;50159;49.426;11.182;2023-05-13T10:00:51;2.70;;;2.60;;
11537;SDS011;50159;49.426;11.182;2023-05-13T10:03:18;2.80;;;2.70;;
11537;SDS011;50159;49.426;11.182;2023-05-13T10:05:45;3.87;;;3.13;;
11537;SDS011;50159;49.426;11.182;2023-05-13T10:08:13;2.77;;;2.67;;
11537;SDS011;50159;49.426;11.182;2023-05-13T10:10:40;2.90;;;2.73;;
11537;SDS011;50159;49.426;11.182;2023-05-13T10:13:13;2.93;;;2.83;;
11537;SDS011;50159;49.426;11.182;2023-05-13T10:15:47;3.07;;;2.87;;
11537;SDS011;50159;49.426;11.182;2023-05-13T10:18:15;2.63;;;2.53;;
11537;SDS011;50159;49.426;11.182;2023-05-13T10:20:43;2.37;;;2.37;;
11537;SDS011;50159;49.426;11.182;2023-05-13T10:23:11;2.57;;;2.47;;
11537;SDS011;50159;49.426;11.182;2023-05-13T10:25:38;3.67;;;2.87;;
11537;SDS011;50159;49.426;11.182;2023-05-13T10:28:06;3.00;;;2.80;;
11537;SDS011;50159;49.426;11.182;2023-05-13T10:30:34;3.10;;;3.00;;
11537;SDS011;50159;49.426;11.182;2023-05-13T10:33:01;2.40;;;2.30;;
11537;SDS011;50159;49.426;11.182;2023-05-13T10:35:30;2.43;;;2.33;;
11537;SDS011;50159;49.426;11.182;2023-05-13T10:44:02;2.87;;;2.70;;
11537;SDS011;50159;49.426;11.182;2023-05-13T10:46:30;2.50;;;2.47;;
11537;SDS011;50159;49.426;11.182;2023-05-13T10:48:59;3.50;;;2.40;;
11537;SDS011;50159;49.426;11.182;2023-05-13T10:51:26;2.67;;;2.57;;
11537;SDS011;50159;49.426;11.182;2023-05-13T10:53:53;2.50;;;2.40;;
11537;SDS011;50159;49.426;11.182;2023-05-13T10:56:23;3.03;;;2.20;;
11537;SDS011;50159;49.426;11.182;2023-05-13T10:58:58;2.17;;;2.10;;
11537;SDS011;50159;49.426;11.182;2023-05-13T11:01:34;3.00;;;2.80;;
11537;SDS011;50159;49.426;11.182;2023-05-13T11:04:13;2.20;;;2.20;;
11537;SDS011;50159;49.426;11.182;2023-05-13T11:06:46;2.73;;;2.53;;
11537;SDS011;50159;49.426;11.182;2023-05-13T11:09:28;2.83;;;2.60;;
11537;SDS011;50159;49.426;11.182;2023-05-13T11:11:56;2.10;;;2.10;;
11537;SDS011;50159;49.426;11.182;2023-05-13T11:14:25;3.27;;;2.57;;
11537;SDS011;50159;49.426;11.182;2023-05-13T11:19:36;2.20;;;2.13;;
11537;SDS011;50159;49.426;11.182;2023-05-13T11:22:08;2.20;;;2.17;;
11537;SDS011;50159;49.426;11.182;2023-05-13T11:24:37;2.10;;;2.03;;
11537;SDS011;50159;49.426;11.182;2023-05-13T11:27:15;2.00;;;2.00;;
11537;SDS011;50159;49.426;11.182;2023-05-13T11:29:47;2.00;;;2.00;;
11537;SDS011;50159;49.426;11.182;2023-05-13T11:32:46;2.20;;;2.10;;
11537;SDS011;50159;49.426;11.182;2023-05-13T11:35:18;2.10;;;2.10;;
11537;SDS011;50159;49.426;11.182;2023-05-13T11:37:48;1.90;;;1.80;;
11537;SDS011;50159;49.426;11.182;2023-05-13T11:40:22;2.10;;;2.00;;
11537;SDS011;50159;49.426;11.182;2023-05-13T11:42:50;1.90;;;1.90;;
11537;SDS011;50159;49.426;11.182;2023-05-13T11:45:17;2.83;;;2.20;;
11537;SDS011;50159;49.426;11.182;2023-05-13T11:47:46;2.40;;;2.33;;
11537;SDS011;50159;49.426;11.182;2023-05-13T11:50:19;2.03;;;2.03;;
11537;SDS011;50159;49.426;11.182;2023-05-13T11:52:53;2.07;;;1.97;;
11537;SDS011;50159;49.426;11.182;2023-05-13T11:55:31;2.33;;;2.23;;
11537;SDS011;50159;49.426;11.182;2023-05-13T11:58:00;2.97;;;2.00;;
11537;SDS011;50159;49.426;11.182;2023-05-13T12:00:28;2.07;;;1.97;;
11537;SDS011;50159;49.426;11.182;2023-05-13T12:02:55;1.70;;;1.70;;
11537;SDS011;50159;49.426;11.182;2023-05-13T12:05:22;2.20;;;2.10;;
11537;SDS011;50159;49.426;11.182;2023-05-13T12:07:50;2.20;;;2.10;;
11537;SDS011;50159;49.426;11.182;2023-05-13T12:10:21;2.10;;;2.10;;
11537;SDS011;50159;49.426;11.182;2023-05-13T12:12:48;2.23;;;2.13;;
11537;SDS011;50159;49.426;11.182;2023-05-13T12:15:16;3.20;;;2.20;;
11537;SDS011;50159;49.426;11.182;2023-05-13T12:17:43;1.93;;;1.93;;
11537;SDS011;50159;49.426;11.182;2023-05-13T12:20:21;2.17;;;2.07;;
11537;SDS011;50159;49.426;11.182;2023-05-13T12:30:50;1.57;;;1.57;;
11537;SDS011;50159;49.426;11.182;2023-05-13T12:33:22;1.80;;;1.80;;
11537;SDS011;50159;49.426;11.182;2023-05-13T12:35:51;1.50;;;1.50;;
11537;SDS011;50159;49.426;11.182;2023-05-13T12:38:20;1.80;;;1.70;;
11537;SDS011;50159;49.426;11.182;2023-05-13T12:40:49;3.17;;;2.17;;
11537;SDS011;50159;49.426;11.182;2023-05-13T12:43:17;1.90;;;1.90;;
11537;SDS011;50159;49.426;11.182;2023-05-13T12:45:45;1.60;;;1.60;;
11537;SDS011;50159;49.426;11.182;2023-05-13T12:48:16;1.80;;;1.70;;
11537;SDS011;50159;49.426;11.182;2023-05-13T12:50:48;1.90;;;1.90;;
11537;SDS011;50159;49.426;11.182;2023-05-13T12:53:16;2.47;;;2.27;;
11537;SDS011;50159;49.426;11.182;2023-05-13T12:55:43;1.57;;;1.47;;
11537;SDS011;50159;49.426;11.182;2023-05-13T12:58:09;1.50;;;1.50;;
11537;SDS011;50159;49.426;11.182;2023-05-13T13:00:38;1.63;;;1.63;;
11537;SDS011;50159;49.426;11.182;2023-05-13T13:03:05;1.50;;;1.50;;
11537;SDS011;50159;49.426;11.182;2023-05-13T13:05:33;1.50;;;1.50;;
11537;SDS011;50159;49.426;11.182;2023-05-13T13:08:00;1.70;;;1.70;;
11537;SDS011;50159;49.426;11.182;2023-05-13T13:10:27;1.90;;;1.80;;
11537;SDS011;50159;49.426;11.182;2023-05-13T13:12:54;1.83;;;1.80;;
11537;SDS011;50159;49.426;11.182;2023-05-13T13:15:20;2.30;;;1.90;;
11537;SDS011;50159;49.426;11.182;2023-05-13T13:17:47;1.90;;;1.80;;
11537;SDS011;50159;49.426;11.182;2023-05-13T13:20:14;2.20;;;2.10;;
11537;SDS011;50159;49.426;11.182;2023-05-13T13:22:41;1.80;;;1.80;;
11537;SDS011;50159;49.426;11.182;2023-05-13T13:25:08;2.07;;;2.07;;
11537;SDS011;50159;49.426;11.182;2023-05-13T13:27:34;2.07;;;2.07;;
11537;SDS011;50159;49.426;11.182;2023-05-13T13:30:01;1.83;;;1.80;;
11537;SDS011;50159;49.426;11.182;2023-05-13T13:32:28;1.80;;;1.80;;
11537;SDS011;50159;49.426;11.182;2023-05-13T13:34:55;1.90;;;1.90;;
11537;SDS011;50159;49.426;11.182;2023-05-13T13:37:23;1.83;;;1.83;;
11537;SDS011;50159;49.426;11.182;2023-05-13T13:39:50;1.80;;;1.70;;
11537;SDS011;50159;49.426;11.182;2023-05-13T13:42:16;2.10;;;2.00;;
11537;SDS011;50159;49.426;11.182;2023-05-13T13:44:43;2.73;;;1.80;;
11537;SDS011;50159;49.426;11.182;2023-05-13T13:47:10;2.97;;;1.63;;
11537;SDS011;50159;49.426;11.182;2023-05-13T13:49:36;1.73;;;1.73;;
11537;SDS011;50159;49.426;11.182;2023-05-13T13:52:03;2.03;;;1.93;;
11537;SDS011;50159;49.426;11.182;2023-05-13T13:54:30;2.77;;;2.10;;
11537;SDS011;50159;49.426;11.182;2023-05-13T13:56:56;3.60;;;2.27;;
11537;SDS011;50159;49.426;11.182;2023-05-13T13:59:24;1.73;;;1.73;;
11537;SDS011;50159;49.426;11.182;2023-05-13T14:01:50;2.07;;;1.97;;
11537;SDS011;50159;49.426;11.182;2023-05-13T14:04:19;2.13;;;2.10;;
11537;SDS011;50159;49.426;11.182;2023-05-13T14:06:49;2.10;;;1.93;;
11537;SDS011;50159;49.426;11.182;2023-05-13T14:09:18;2.10;;;2.10;;
11537;SDS011;50159;49.426;11.182;2023-05-13T14:11:45;1.97;;;1.87;;
11537;SDS011;50159;49.426;11.182;2023-05-13T14:14:11;2.87;;;2.67;;
11537;SDS011;50159;49.426;11.182;2023-05-13T14:16:38;2.23;;;2.13;;
11537;SDS011;50159;49.426;11.182;2023-05-13T14:19:05;2.33;;;2.23;;
11537;SDS011;50159;49.426;11.182;2023-05-13T14:21:32;1.80;;;1.70;;
11537;SDS011;50159;49.426;11.182;2023-05-13T14:23:58;1.93;;;1.90;;
11537;SDS011;50159;49.426;11.182;2023-05-13T14:26:25;2.53;;;2.33;;
11537;SDS011;50159;49.426;11.182;2023-05-13T14:28:58;2.00;;;1.90;;
11537;SDS011;50159;49.426;11.182;2023-05-13T14:31:25;5.83;;;2.40;;
11537;SDS011;50159;49.426;11.182;2023-05-13T14:33:52;2.10;;;1.93;;
11537;SDS011;50159;49.426;11.182;2023-05-13T14:36:18;2.13;;;2.03;;
11537;SDS011;50159;49.426;11.182;2023-05-13T14:38:47;2.10;;;2.00;;
11537;SDS011;50159;49.426;11.182;2023-05-13T14:41:14;2.27;;;2.17;;
11537;SDS011;50159;49.426;11.182;2023-05-13T14:43:45;1.90;;;1.90;;
11537;SDS011;50159;49.426;11.182;2023-05-13T14:46:12;1.77;;;1.77;;
11537;SDS011;50159;49.426;11.182;2023-05-13T14:48:40;1.60;;;1.60;;
11537;SDS011;50159;49.426;11.182;2023-05-13T14:51:06;1.80;;;1.70;;
11537;SDS011;50159;49.426;11.182;2023-05-13T14:53:33;1.90;;;1.90;;
11537;SDS011;50159;49.426;11.182;2023-05-13T14:56:00;1.73;;;1.63;;
11537;SDS011;50159;49.426;11.182;2023-05-13T14:58:27;1.90;;;1.80;;
11537;SDS011;50159;49.426;11.182;2023-05-13T15:00:54;1.50;;;1.50;;
11537;SDS011;50159;49.426;11.182;2023-05-13T15:03:21;1.70;;;1.70;;